sensor_id;sensor_type;location;lat;lon;timestamp;temperature;humidity
17845;DHT22;9047;53.486;10.218;2023-07-29T00:01:44;18.20;99.90
17845;DHT22;9047;53.486;10.218;2023-07-29T00:04:11;18.20;99.90
17845;DHT22;9047;53.486;10.218;2023-07-29T00:06:38;18.20;99.90
17845;DHT22;9047;53.486;10.218;2023-07-29T00:09:05;18.20;99.90
17845;DHT22;9047;53.486;10.218;2023-07-29T00:11:32;18.10;99.90
17845;DHT22;9047;53.486;10.218;2023-07-29T00:14:00;18.10;99.90
17845;DHT22;9047;53.486;10.218;2023-07-29T00:16:30;18.10;99.90
17845;DHT22;9047;53.486;10.218;2023-07-29T00:18:57;18.00;99.90
17845;DHT22;9047;53.486;10.218;2023-07-29T00:21:24;18.00;99.90
17845;DHT22;9047;53.486;10.218;2023-07-29T00:23:51;18.00;99.90
17845;DHT22;9047;53.486;10.218;2023-07-29T00:26:18;17.90;99.90
17845;DHT22;9047;53.486;10.218;2023-07-29T00:28:47;17.90;99.90
17845;DHT22;9047;53.486;10.218;2023-07-29T00:31:16;17.90;99.90
17845;DHT22;9047;53.486;10.218;2023-07-29T00:33:43;17.80;99.90
17845;DHT22;9047;53.486;10.218;2023-07-29T00:36:11;17.80;99.90
17845;DHT22;9047;53.486;10.218;2023-07-29T00:38:38;17.80;99.90
17845;DHT22;9047;53.486;10.218;2023-07-29T00:41:07;17.70;99.90
17845;DHT22;9047;53.486;10.218;2023-07-29T00:43:36;17.70;99.90
17845;DHT22;9047;53.486;10.218;2023-07-29T00:46:03;17.70;99.90
17845;DHT22;9047;53.486;10.218;2023-07-29T00:48:32;17.70;99.90
17845;DHT22;9047;53.486;10.218;2023-07-29T00:51:00;17.70;99.90
17845;DHT22;9047;53.486;10.218;2023-07-29T00:53:27;17.60;99.90
17845;DHT22;9047;53.486;10.218;2023-07-29T00:55:54;17.60;99.90
17845;DHT22;9047;53.486;10.218;2023-07-29T00:58:21;17.60;99.90
17845;DHT22;9047;53.486;10.218;2023-07-29T01:00:49;17.60;99.90
17845;DHT22;9047;53.486;10.218;2023-07-29T01:03:17;17.60;99.90
17845;DHT22;9047;53.486;10.218;2023-07-29T01:05:54;17.50;99.90
17845;DHT22;9047;53.486;10.218;2023-07-29T01:08:29;17.50;99.90
17845;DHT22;9047;53.486;10.218;2023-07-29T01:11:03;17.50;99.90
17845;DHT22;9047;53.486;10.218;2023-07-29T01:13:44;17.50;99.90
17845;DHT22;9047;53.486;10.218;2023-07-29T01:16:15;17.60;99.90
17845;DHT22;9047;53.486;10.218;2023-07-29T01:18:47;17.50;99.90
17845;DHT22;9047;53.486;10.218;2023-07-29T01:21:17;17.50;99.90
17845;DHT22;9047;53.486;10.218;2023-07-29T01:23:46;17.50;99.90
17845;DHT22;9047;53.486;10.218;2023-07-29T01:26:13;17.60;99.90
17845;DHT22;9047;53.486;10.218;2023-07-29T01:28:40;17.60;99.90
17845;DHT22;9047;53.486;10.218;2023-07-29T01:31:12;17.70;99.90
17845;DHT22;9047;53.486;10.218;2023-07-29T01:33:44;17.80;99.90
17845;DHT22;9047;53.486;10.218;2023-07-29T01:36:18;17.80;99.90
17845;DHT22;9047;53.486;10.218;2023-07-29T01:38:51;17.90;99.90
17845;DHT22;9047;53.486;10.218;2023-07-29T01:41:19;17.90;99.90
17845;DHT22;9047;53.486;10.218;2023-07-29T01:43:47;17.90;99.90
17845;DHT22;9047;53.486;10.218;2023-07-29T01:46:14;17.90;99.90
17845;DHT22;9047;53.486;10.218;2023-07-29T01:48:42;18.00;99.90
17845;DHT22;9047;53.486;10.218;2023-07-29T01:51:11;18.00;99.90
17845;DHT22;9047;53.486;10.218;2023-07-29T01:53:38;18.00;99.90
17845;DHT22;9047;53.486;10.218;2023-07-29T01:56:08;18.00;99.90
17845;DHT22;9047;53.486;10.218;2023-07-29T01:58:36;18.00;99.90
17845;DHT22;9047;53.486;10.218;2023-07-29T02:01:03;18.00;99.90
17845;DHT22;9047;53.486;10.218;2023-07-29T02:03:31;18.00;99.90
17845;DHT22;9047;53.486;10.218;2023-07-29T02:05:58;18.00;99.90
17845;DHT22;9047;53.486;10.218;2023-07-29T02:08:24;18.00;99.90
17845;DHT22;9047;53.486;10.218;2023-07-29T02:10:51;18.00;99.90
17845;DHT22;9047;53.486;10.218;2023-07-29T02:13:20;18.00;99.90
17845;DHT22;9047;53.486;10.218;2023-07-29T02:15:49;18.00;99.90
17845;DHT22;9047;53.486;10.218;2023-07-29T02:18:18;17.90;99.90
17845;DHT22;9047;53.486;10.218;2023-07-29T02:20:45;17.90;99.90
17845;DHT22;9047;53.486;10.218;2023-07-29T02:23:16;17.90;99.90
17845;DHT22;9047;53.486;10.218;2023-07-29T02:25:45;17.90;99.90
17845;DHT22;9047;53.486;10.218;2023-07-29T02:28:13;17.90;99.90
17845;DHT22;9047;53.486;10.218;2023-07-29T02:30:43;17.80;99.90
17845;DHT22;9047;53.486;10.218;2023-07-29T02:33:12;17.80;99.90
17845;DHT22;9047;53.486;10.218;2023-07-29T02:35:39;17.80;99.90
17845;DHT22;9047;53.486;10.218;2023-07-29T02:38:08;17.80;99.90
17845;DHT22;9047;53.486;10.218;2023-07-29T02:40:36;17.80;99.90
17845;DHT22;9047;53.486;10.218;2023-07-29T02:43:27;17.80;99.90
17845;DHT22;9047;53.486;10.218;2023-07-29T02:46:03;17.80;99.90
17845;DHT22;9047;53.486;10.218;2023-07-29T02:48:30;17.70;99.90
17845;DHT22;9047;53.486;10.218;2023-07-29T02:50:59;17.70;99.90
17845;DHT22;9047;53.486;10.218;2023-07-29T02:53:27;17.70;99.90
17845;DHT22;9047;53.486;10.218;2023-07-29T02:55:54;17.70;99.90
17845;DHT22;9047;53.486;10.218;2023-07-29T02:58:23;17.70;99.90
17845;DHT22;9047;53.486;10.218;2023-07-29T03:00:52;17.60;99.90
17845;DHT22;9047;53.486;10.218;2023-07-29T03:03:21;17.60;99.90
17845;DHT22;9047;53.486;10.218;2023-07-29T03:05:58;17.60;99.90
17845;DHT22;9047;53.486;10.218;2023-07-29T03:08:28;17.60;99.90
17845;DHT22;9047;53.486;10.218;2023-07-29T03:10:55;17.50;99.90
17845;DHT22;9047;53.486;10.218;2023-07-29T03:13:23;17.40;99.90
17845;DHT22;9047;53.486;10.218;2023-07-29T03:15:51;17.40;99.90
17845;DHT22;9047;53.486;10.218;2023-07-29T03:18:18;17.30;99.90
17845;DHT22;9047;53.486;10.218;2023-07-29T03:20:49;17.30;99.90
17845;DHT22;9047;53.486;10.218;2023-07-29T03:23:15;17.30;99.90
17845;DHT22;9047;53.486;10.218;2023-07-29T03:25:43;17.30;99.90
17845;DHT22;9047;53.486;10.218;2023-07-29T03:28:10;17.40;99.90
17845;DHT22;9047;53.486;10.218;2023-07-29T03:30:38;17.40;99.90
17845;DHT22;9047;53.486;10.218;2023-07-29T03:33:08;17.40;99.90
17845;DHT22;9047;53.486;10.218;2023-07-29T03:35:35;17.40;99.90
17845;DHT22;9047;53.486;10.218;2023-07-29T03:38:04;17.40;99.90
17845;DHT22;9047;53.486;10.218;2023-07-29T03:40:32;17.40;99.90
17845;DHT22;9047;53.486;10.218;2023-07-29T03:43:00;17.50;99.90
17845;DHT22;9047;53.486;10.218;2023-07-29T03:45:27;17.40;99.90
17845;DHT22;9047;53.486;10.218;2023-07-29T03:47:54;17.40;99.90
17845;DHT22;9047;53.486;10.218;2023-07-29T03:50:23;17.40;99.90
17845;DHT22;9047;53.486;10.218;2023-07-29T03:52:51;17.50;99.90
17845;DHT22;9047;53.486;10.218;2023-07-29T03:55:20;17.50;99.90
17845;DHT22;9047;53.486;10.218;2023-07-29T03:57:48;17.50;99.90
17845;DHT22;9047;53.486;10.218;2023-07-29T04:00:16;17.50;99.90
17845;DHT22;9047;53.486;10.218;2023-07-29T04:02:44;17.50;99.90
17845;DHT22;9047;53.486;10.218;2023-07-29T04:05:12;17.50;99.90
17845;DHT22;9047;53.486;10.218;2023-07-29T04:07:40;17.50;99.90
17845;DHT22;9047;53.486;10.218;2023-07-29T04:10:08;17.60;99.90
17845;DHT22;9047;53.486;10.218;2023-07-29T04:12:39;17.60;99.90
17845;DHT22;9047;53.486;10.218;2023-07-29T04:15:07;17.50;99.90
17845;DHT22;9047;53.486;10.218;2023-07-29T04:17:35;17.60;99.90
17845;DHT22;9047;53.486;10.218;2023-07-29T04:20:02;17.70;99.90
17845;DHT22;9047;53.486;10.218;2023-07-29T04:22:29;17.70;99.90
17845;DHT22;9047;53.486;10.218;2023-07-29T04:24:59;17.70;99.90
17845;DHT22;9047;53.486;10.218;2023-07-29T04:27:26;17.80;99.90
17845;DHT22;9047;53.486;10.218;2023-07-29T04:29:56;17.80;99.90
17845;DHT22;9047;53.486;10.218;2023-07-29T04:32:23;17.90;99.90
17845;DHT22;9047;53.486;10.218;2023-07-29T04:34:51;17.90;99.90
17845;DHT22;9047;53.486;10.218;2023-07-29T04:37:18;17.90;99.90
17845;DHT22;9047;53.486;10.218;2023-07-29T04:39:46;17.90;99.90
17845;DHT22;9047;53.486;10.218;2023-07-29T04:42:14;17.90;99.90
17845;DHT22;9047;53.486;10.218;2023-07-29T04:44:41;17.90;99.90
17845;DHT22;9047;53.486;10.218;2023-07-29T04:47:12;17.90;99.90
17845;DHT22;9047;53.486;10.218;2023-07-29T04:49:40;17.90;99.90
17845;DHT22;9047;53.486;10.218;2023-07-29T04:52:07;17.90;99.90
17845;DHT22;9047;53.486;10.218;2023-07-29T04:54:35;17.90;99.90
17845;DHT22;9047;53.486;10.218;2023-07-29T04:57:04;18.00;99.90
17845;DHT22;9047;53.486;10.218;2023-07-29T04:59:31;18.00;99.90
17845;DHT22;9047;53.486;10.218;2023-07-29T05:01:58;18.00;99.90
17845;DHT22;9047;53.486;10.218;2023-07-29T05:04:27;18.00;99.90
17845;DHT22;9047;53.486;10.218;2023-07-29T05:06:54;18.00;99.90
17845;DHT22;9047;53.486;10.218;2023-07-29T05:09:22;18.00;99.90
17845;DHT22;9047;53.486;10.218;2023-07-29T05:11:49;18.00;99.90
17845;DHT22;9047;53.486;10.218;2023-07-29T05:14:17;18.10;99.90
17845;DHT22;9047;53.486;10.218;2023-07-29T05:16:46;18.10;99.90
17845;DHT22;9047;53.486;10.218;2023-07-29T05:19:13;18.20;99.90
17845;DHT22;9047;53.486;10.218;2023-07-29T05:21:42;18.20;99.90
17845;DHT22;9047;53.486;10.218;2023-07-29T05:24:09;18.30;99.90
17845;DHT22;9047;53.486;10.218;2023-07-29T05:26:36;18.20;99.90
17845;DHT22;9047;53.486;10.218;2023-07-29T05:29:03;18.30;99.90
17845;DHT22;9047;53.486;10.218;2023-07-29T05:31:30;18.30;99.90
17845;DHT22;9047;53.486;10.218;2023-07-29T05:33:58;18.30;99.90
17845;DHT22;9047;53.486;10.218;2023-07-29T05:36:26;18.40;99.90
17845;DHT22;9047;53.486;10.218;2023-07-29T05:38:56;18.40;99.90
17845;DHT22;9047;53.486;10.218;2023-07-29T05:41:23;18.50;99.90
17845;DHT22;9047;53.486;10.218;2023-07-29T05:43:53;18.50;99.90
17845;DHT22;9047;53.486;10.218;2023-07-29T05:46:21;18.60;99.90
17845;DHT22;9047;53.486;10.218;2023-07-29T05:48:50;18.70;99.90
17845;DHT22;9047;53.486;10.218;2023-07-29T05:51:17;18.80;99.90
17845;DHT22;9047;53.486;10.218;2023-07-29T05:53:44;19.00;99.90
17845;DHT22;9047;53.486;10.218;2023-07-29T05:56:13;19.10;99.90
17845;DHT22;9047;53.486;10.218;2023-07-29T05:58:40;19.20;99.90
17845;DHT22;9047;53.486;10.218;2023-07-29T06:01:08;19.40;99.90
17845;DHT22;9047;53.486;10.218;2023-07-29T06:03:35;19.50;99.90
17845;DHT22;9047;53.486;10.218;2023-07-29T06:06:03;19.60;99.90
17845;DHT22;9047;53.486;10.218;2023-07-29T06:08:31;19.70;99.90
17845;DHT22;9047;53.486;10.218;2023-07-29T06:11:01;19.70;99.90
17845;DHT22;9047;53.486;10.218;2023-07-29T06:13:34;19.80;99.90
17845;DHT22;9047;53.486;10.218;2023-07-29T06:16:01;19.80;99.90
17845;DHT22;9047;53.486;10.218;2023-07-29T06:18:29;19.80;99.90
17845;DHT22;9047;53.486;10.218;2023-07-29T06:20:59;19.80;99.90
17845;DHT22;9047;53.486;10.218;2023-07-29T06:23:28;19.90;99.90
17845;DHT22;9047;53.486;10.218;2023-07-29T06:25:55;19.90;99.90
17845;DHT22;9047;53.486;10.218;2023-07-29T06:28:27;20.00;99.90
17845;DHT22;9047;53.486;10.218;2023-07-29T06:30:59;20.10;99.90
17845;DHT22;9047;53.486;10.218;2023-07-29T06:33:27;20.10;99.90
17845;DHT22;9047;53.486;10.218;2023-07-29T06:35:55;20.10;99.90
17845;DHT22;9047;53.486;10.218;2023-07-29T06:38:24;20.20;99.90
17845;DHT22;9047;53.486;10.218;2023-07-29T06:40:52;20.40;99.90
17845;DHT22;9047;53.486;10.218;2023-07-29T06:43:19;20.90;99.90
17845;DHT22;9047;53.486;10.218;2023-07-29T06:45:47;21.20;99.90
17845;DHT22;9047;53.486;10.218;2023-07-29T06:48:17;21.30;99.90
17845;DHT22;9047;53.486;10.218;2023-07-29T06:50:55;21.30;99.90
17845;DHT22;9047;53.486;10.218;2023-07-29T06:53:26;21.20;99.90
17845;DHT22;9047;53.486;10.218;2023-07-29T06:56:02;21.20;99.90
17845;DHT22;9047;53.486;10.218;2023-07-29T06:58:29;21.20;99.90
17845;DHT22;9047;53.486;10.218;2023-07-29T07:00:58;21.40;99.90
17845;DHT22;9047;53.486;10.218;2023-07-29T07:03:27;21.50;99.90
17845;DHT22;9047;53.486;10.218;2023-07-29T07:05:55;21.50;99.90
17845;DHT22;9047;53.486;10.218;2023-07-29T07:08:34;21.60;99.90
17845;DHT22;9047;53.486;10.218;2023-07-29T07:11:09;21.60;99.90
17845;DHT22;9047;53.486;10.218;2023-07-29T07:13:36;21.60;99.90
17845;DHT22;9047;53.486;10.218;2023-07-29T07:16:04;21.60;99.90
17845;DHT22;9047;53.486;10.218;2023-07-29T07:18:33;21.60;99.90
17845;DHT22;9047;53.486;10.218;2023-07-29T07:21:02;21.50;99.90
17845;DHT22;9047;53.486;10.218;2023-07-29T07:23:29;21.50;99.90
17845;DHT22;9047;53.486;10.218;2023-07-29T07:25:58;21.50;99.90
17845;DHT22;9047;53.486;10.218;2023-07-29T07:28:25;21.50;99.90
17845;DHT22;9047;53.486;10.218;2023-07-29T07:30:56;21.40;99.90
17845;DHT22;9047;53.486;10.218;2023-07-29T07:33:24;21.40;99.90
17845;DHT22;9047;53.486;10.218;2023-07-29T07:35:56;21.40;99.90
17845;DHT22;9047;53.486;10.218;2023-07-29T07:38:29;21.50;99.90
17845;DHT22;9047;53.486;10.218;2023-07-29T07:40:57;21.50;99.90
17845;DHT22;9047;53.486;10.218;2023-07-29T07:43:25;21.50;99.90
17845;DHT22;9047;53.486;10.218;2023-07-29T07:45:57;21.50;99.90
17845;DHT22;9047;53.486;10.218;2023-07-29T07:48:25;21.50;99.90
17845;DHT22;9047;53.486;10.218;2023-07-29T07:50:56;21.50;99.90
17845;DHT22;9047;53.486;10.218;2023-07-29T07:53:24;21.50;99.90
17845;DHT22;9047;53.486;10.218;2023-07-29T07:56:07;21.50;99.90
17845;DHT22;9047;53.486;10.218;2023-07-29T07:58:34;21.50;99.90
17845;DHT22;9047;53.486;10.218;2023-07-29T08:01:02;21.50;99.90
17845;DHT22;9047;53.486;10.218;2023-07-29T08:03:29;21.50;99.90
17845;DHT22;9047;53.486;10.218;2023-07-29T08:05:58;21.60;99.90
17845;DHT22;9047;53.486;10.218;2023-07-29T08:08:26;21.70;99.90
17845;DHT22;9047;53.486;10.218;2023-07-29T08:10:53;21.80;99.90
17845;DHT22;9047;53.486;10.218;2023-07-29T08:13:21;21.90;99.90
17845;DHT22;9047;53.486;10.218;2023-07-29T08:15:49;22.00;99.90
17845;DHT22;9047;53.486;10.218;2023-07-29T08:18:16;22.10;99.90
17845;DHT22;9047;53.486;10.218;2023-07-29T08:20:52;22.20;99.90
17845;DHT22;9047;53.486;10.218;2023-07-29T08:23:22;22.30;99.90
17845;DHT22;9047;53.486;10.218;2023-07-29T08:25:53;22.30;99.90
17845;DHT22;9047;53.486;10.218;2023-07-29T08:28:25;22.40;99.90
17845;DHT22;9047;53.486;10.218;2023-07-29T08:30:52;22.40;99.90
17845;DHT22;9047;53.486;10.218;2023-07-29T08:33:20;22.50;99.90
17845;DHT22;9047;53.486;10.218;2023-07-29T08:35:47;22.40;99.90
17845;DHT22;9047;53.486;10.218;2023-07-29T08:38:15;22.40;99.90
17845;DHT22;9047;53.486;10.218;2023-07-29T08:40:51;22.30;99.90
17845;DHT22;9047;53.486;10.218;2023-07-29T08:43:20;22.20;99.90
17845;DHT22;9047;53.486;10.218;2023-07-29T08:45:53;22.00;99.90
17845;DHT22;9047;53.486;10.218;2023-07-29T08:48:27;21.90;99.90
17845;DHT22;9047;53.486;10.218;2023-07-29T08:50:56;21.80;99.90
17845;DHT22;9047;53.486;10.218;2023-07-29T08:53:25;21.80;99.90
17845;DHT22;9047;53.486;10.218;2023-07-29T08:55:57;21.80;99.90
17845;DHT22;9047;53.486;10.218;2023-07-29T08:58:26;21.90;99.90
17845;DHT22;9047;53.486;10.218;2023-07-29T09:01:46;22.10;99.90
17845;DHT22;9047;53.486;10.218;2023-07-29T09:04:22;22.40;99.90
17845;DHT22;9047;53.486;10.218;2023-07-29T09:06:51;22.60;99.90
17845;DHT22;9047;53.486;10.218;2023-07-29T09:09:55;22.80;99.90
17845;DHT22;9047;53.486;10.218;2023-07-29T09:19:08;23.40;99.90
17845;DHT22;9047;53.486;10.218;2023-07-29T09:21:39;23.50;99.90
17845;DHT22;9047;53.486;10.218;2023-07-29T09:24:07;23.70;99.90
17845;DHT22;9047;53.486;10.218;2023-07-29T09:26:36;23.70;99.90
17845;DHT22;9047;53.486;10.218;2023-07-29T09:29:03;23.80;99.90
17845;DHT22;9047;53.486;10.218;2023-07-29T09:31:35;23.90;99.90
17845;DHT22;9047;53.486;10.218;2023-07-29T09:34:03;23.90;99.90
17845;DHT22;9047;53.486;10.218;2023-07-29T09:36:34;24.00;99.90
17845;DHT22;9047;53.486;10.218;2023-07-29T09:39:11;24.10;99.90
17845;DHT22;9047;53.486;10.218;2023-07-29T09:41:39;24.20;99.90
17845;DHT22;9047;53.486;10.218;2023-07-29T09:44:38;24.20;99.90
17845;DHT22;9047;53.486;10.218;2023-07-29T09:47:05;24.20;99.90
17845;DHT22;9047;53.486;10.218;2023-07-29T09:49:36;24.30;99.90
17845;DHT22;9047;53.486;10.218;2023-07-29T09:52:08;24.30;99.90
17845;DHT22;9047;53.486;10.218;2023-07-29T09:54:38;24.20;99.90
17845;DHT22;9047;53.486;10.218;2023-07-29T09:57:08;24.30;99.90
17845;DHT22;9047;53.486;10.218;2023-07-29T10:02:29;24.20;99.90
17845;DHT22;9047;53.486;10.218;2023-07-29T10:04:59;24.10;99.90
17845;DHT22;9047;53.486;10.218;2023-07-29T10:07:40;24.10;99.90
17845;DHT22;9047;53.486;10.218;2023-07-29T10:10:12;24.00;99.90
17845;DHT22;9047;53.486;10.218;2023-07-29T10:12:50;23.90;99.90
17845;DHT22;9047;53.486;10.218;2023-07-29T10:15:22;23.90;99.90
17845;DHT22;9047;53.486;10.218;2023-07-29T10:17:50;24.00;99.90
17845;DHT22;9047;53.486;10.218;2023-07-29T10:20:23;24.00;99.90
17845;DHT22;9047;53.486;10.218;2023-07-29T10:22:56;24.00;99.90
17845;DHT22;9047;53.486;10.218;2023-07-29T10:25:43;24.00;99.90
17845;DHT22;9047;53.486;10.218;2023-07-29T10:28:16;24.00;99.90
17845;DHT22;9047;53.486;10.218;2023-07-29T10:30:48;23.90;99.90
17845;DHT22;9047;53.486;10.218;2023-07-29T10:33:17;23.90;99.90
17845;DHT22;9047;53.486;10.218;2023-07-29T10:35:44;24.00;99.90
17845;DHT22;9047;53.486;10.218;2023-07-29T10:38:15;24.10;99.90
17845;DHT22;9047;53.486;10.218;2023-07-29T10:40:47;24.30;99.90
17845;DHT22;9047;53.486;10.218;2023-07-29T10:43:20;24.40;99.90
17845;DHT22;9047;53.486;10.218;2023-07-29T10:46:15;24.60;99.90
17845;DHT22;9047;53.486;10.218;2023-07-29T10:48:44;24.80;99.90
17845;DHT22;9047;53.486;10.218;2023-07-29T10:51:26;24.80;99.90
17845;DHT22;9047;53.486;10.218;2023-07-29T10:53:58;24.80;99.90
17845;DHT22;9047;53.486;10.218;2023-07-29T10:56:30;24.80;99.90
17845;DHT22;9047;53.486;10.218;2023-07-29T10:59:31;24.70;99.90
17845;DHT22;9047;53.486;10.218;2023-07-29T11:01:59;24.70;99.90
17845;DHT22;9047;53.486;10.218;2023-07-29T11:04:28;24.70;99.90
17845;DHT22;9047;53.486;10.218;2023-07-29T11:07:24;24.80;99.90
17845;DHT22;9047;53.486;10.218;2023-07-29T11:10:08;24.90;99.90
17845;DHT22;9047;53.486;10.218;2023-07-29T11:12:41;24.90;99.90
17845;DHT22;9047;53.486;10.218;2023-07-29T11:15:19;25.00;99.90
17845;DHT22;9047;53.486;10.218;2023-07-29T11:17:52;24.90;99.90
17845;DHT22;9047;53.486;10.218;2023-07-29T11:20:30;24.90;99.90
17845;DHT22;9047;53.486;10.218;2023-07-29T11:22:59;24.90;99.90
17845;DHT22;9047;53.486;10.218;2023-07-29T11:25:29;24.80;99.90
17845;DHT22;9047;53.486;10.218;2023-07-29T11:28:00;24.80;99.90
17845;DHT22;9047;53.486;10.218;2023-07-29T11:30:28;24.80;99.90
17845;DHT22;9047;53.486;10.218;2023-07-29T11:32:58;24.80;99.90
17845;DHT22;9047;53.486;10.218;2023-07-29T11:35:25;25.00;99.90
17845;DHT22;9047;53.486;10.218;2023-07-29T11:37:54;25.20;99.90
17845;DHT22;9047;53.486;10.218;2023-07-29T11:40:23;25.40;99.90
17845;DHT22;9047;53.486;10.218;2023-07-29T11:42:56;25.70;99.90
17845;DHT22;9047;53.486;10.218;2023-07-29T11:45:23;25.90;99.90
17845;DHT22;9047;53.486;10.218;2023-07-29T11:47:51;25.90;99.90
17845;DHT22;9047;53.486;10.218;2023-07-29T11:50:18;26.00;99.90
17845;DHT22;9047;53.486;10.218;2023-07-29T11:52:46;25.90;99.90
17845;DHT22;9047;53.486;10.218;2023-07-29T11:55:15;25.80;99.90
17845;DHT22;9047;53.486;10.218;2023-07-29T11:57:43;25.60;99.90
17845;DHT22;9047;53.486;10.218;2023-07-29T12:00:12;25.60;99.90
17845;DHT22;9047;53.486;10.218;2023-07-29T12:02:42;25.50;99.90
17845;DHT22;9047;53.486;10.218;2023-07-29T12:05:11;25.60;99.90
17845;DHT22;9047;53.486;10.218;2023-07-29T12:07:40;25.90;99.90
17845;DHT22;9047;53.486;10.218;2023-07-29T12:10:09;26.20;99.90
17845;DHT22;9047;53.486;10.218;2023-07-29T12:12:44;26.20;99.90
17845;DHT22;9047;53.486;10.218;2023-07-29T12:15:22;26.10;99.90
17845;DHT22;9047;53.486;10.218;2023-07-29T12:17:54;26.00;99.90
17845;DHT22;9047;53.486;10.218;2023-07-29T12:20:25;25.90;99.90
17845;DHT22;9047;53.486;10.218;2023-07-29T12:22:52;25.80;99.90
17845;DHT22;9047;53.486;10.218;2023-07-29T12:25:26;25.60;99.90
17845;DHT22;9047;53.486;10.218;2023-07-29T12:27:54;25.50;99.90
17845;DHT22;9047;53.486;10.218;2023-07-29T12:30:23;25.40;99.90
17845;DHT22;9047;53.486;10.218;2023-07-29T12:32:50;25.30;99.90
17845;DHT22;9047;53.486;10.218;2023-07-29T12:35:17;25.30;99.90
17845;DHT22;9047;53.486;10.218;2023-07-29T12:37:45;25.60;99.90
17845;DHT22;9047;53.486;10.218;2023-07-29T12:40:21;25.90;99.90
17845;DHT22;9047;53.486;10.218;2023-07-29T12:42:49;25.90;99.90
17845;DHT22;9047;53.486;10.218;2023-07-29T12:45:17;26.10;99.90
17845;DHT22;9047;53.486;10.218;2023-07-29T12:47:46;26.10;99.90
17845;DHT22;9047;53.486;10.218;2023-07-29T12:50:13;26.10;99.90
17845;DHT22;9047;53.486;10.218;2023-07-29T12:52:39;26.00;99.90
17845;DHT22;9047;53.486;10.218;2023-07-29T12:55:07;26.00;99.90
17845;DHT22;9047;53.486;10.218;2023-07-29T12:57:39;25.90;99.90
17845;DHT22;9047;53.486;10.218;2023-07-29T13:00:07;25.90;99.90
17845;DHT22;9047;53.486;10.218;2023-07-29T13:02:34;26.20;99.90
17845;DHT22;9047;53.486;10.218;2023-07-29T13:05:05;26.30;99.90
17845;DHT22;9047;53.486;10.218;2023-07-29T13:07:32;26.40;99.90
17845;DHT22;9047;53.486;10.218;2023-07-29T13:10:00;26.40;99.90
17845;DHT22;9047;53.486;10.218;2023-07-29T13:12:27;26.10;99.90
17845;DHT22;9047;53.486;10.218;2023-07-29T13:14:54;26.00;99.90
17845;DHT22;9047;53.486;10.218;2023-07-29T13:17:22;26.00;99.90
17845;DHT22;9047;53.486;10.218;2023-07-29T13:19:49;26.10;99.90
17845;DHT22;9047;53.486;10.218;2023-07-29T13:22:19;26.20;99.90
17845;DHT22;9047;53.486;10.218;2023-07-29T13:24:46;26.40;99.90
17845;DHT22;9047;53.486;10.218;2023-07-29T13:27:13;26.50;99.90
17845;DHT22;9047;53.486;10.218;2023-07-29T13:29:40;26.40;99.90
17845;DHT22;9047;53.486;10.218;2023-07-29T13:32:09;26.30;99.90
17845;DHT22;9047;53.486;10.218;2023-07-29T13:34:35;26.10;99.90
17845;DHT22;9047;53.486;10.218;2023-07-29T13:37:06;26.10;99.90
17845;DHT22;9047;53.486;10.218;2023-07-29T13:39:34;26.20;99.90
17845;DHT22;9047;53.486;10.218;2023-07-29T13:42:01;26.20;99.90
17845;DHT22;9047;53.486;10.218;2023-07-29T13:44:28;26.20;99.90
17845;DHT22;9047;53.486;10.218;2023-07-29T13:46:55;26.20;99.90
17845;DHT22;9047;53.486;10.218;2023-07-29T13:49:22;26.10;99.90
17845;DHT22;9047;53.486;10.218;2023-07-29T13:51:49;26.00;99.90
17845;DHT22;9047;53.486;10.218;2023-07-29T13:54:17;26.00;99.90
17845;DHT22;9047;53.486;10.218;2023-07-29T13:56:46;26.10;99.90
17845;DHT22;9047;53.486;10.218;2023-07-29T13:59:14;26.00;99.90
17845;DHT22;9047;53.486;10.218;2023-07-29T14:01:40;26.00;99.90
17845;DHT22;9047;53.486;10.218;2023-07-29T14:04:07;25.70;99.90
17845;DHT22;9047;53.486;10.218;2023-07-29T14:06:34;25.60;99.90
17845;DHT22;9047;53.486;10.218;2023-07-29T14:09:01;25.40;99.90
17845;DHT22;9047;53.486;10.218;2023-07-29T14:11:31;25.30;99.90
17845;DHT22;9047;53.486;10.218;2023-07-29T14:13:59;25.40;99.90
17845;DHT22;9047;53.486;10.218;2023-07-29T14:16:26;25.60;99.90
17845;DHT22;9047;53.486;10.218;2023-07-29T14:18:55;25.80;99.90
17845;DHT22;9047;53.486;10.218;2023-07-29T14:21:22;25.80;99.90
17845;DHT22;9047;53.486;10.218;2023-07-29T14:23:49;25.80;99.90
17845;DHT22;9047;53.486;10.218;2023-07-29T14:26:16;25.70;99.90
17845;DHT22;9047;53.486;10.218;2023-07-29T14:28:42;25.80;99.90
17845;DHT22;9047;53.486;10.218;2023-07-29T14:31:11;25.90;99.90
17845;DHT22;9047;53.486;10.218;2023-07-29T14:33:41;26.00;99.90
17845;DHT22;9047;53.486;10.218;2023-07-29T14:36:08;26.00;99.90
17845;DHT22;9047;53.486;10.218;2023-07-29T14:38:35;26.00;99.90
17845;DHT22;9047;53.486;10.218;2023-07-29T14:41:06;25.90;99.90
17845;DHT22;9047;53.486;10.218;2023-07-29T14:43:36;25.70;99.90
17845;DHT22;9047;53.486;10.218;2023-07-29T14:46:04;25.40;99.90
17845;DHT22;9047;53.486;10.218;2023-07-29T14:48:33;25.20;99.90
17845;DHT22;9047;53.486;10.218;2023-07-29T14:51:03;25.00;99.90
17845;DHT22;9047;53.486;10.218;2023-07-29T14:53:31;24.90;99.90
17845;DHT22;9047;53.486;10.218;2023-07-29T14:55:58;24.90;99.90
17845;DHT22;9047;53.486;10.218;2023-07-29T14:58:25;24.90;99.90
17845;DHT22;9047;53.486;10.218;2023-07-29T15:00:52;24.90;99.90
17845;DHT22;9047;53.486;10.218;2023-07-29T15:03:20;24.90;99.90
17845;DHT22;9047;53.486;10.218;2023-07-29T15:05:49;24.80;99.90
17845;DHT22;9047;53.486;10.218;2023-07-29T15:08:16;24.90;99.90
17845;DHT22;9047;53.486;10.218;2023-07-29T15:10:45;25.20;99.90
17845;DHT22;9047;53.486;10.218;2023-07-29T15:13:12;25.40;99.90
17845;DHT22;9047;53.486;10.218;2023-07-29T15:15:40;25.60;99.90
17845;DHT22;9047;53.486;10.218;2023-07-29T15:18:07;25.70;99.90
17845;DHT22;9047;53.486;10.218;2023-07-29T15:20:34;25.90;99.90
17845;DHT22;9047;53.486;10.218;2023-07-29T15:23:02;25.80;99.90
17845;DHT22;9047;53.486;10.218;2023-07-29T15:25:29;25.80;99.90
17845;DHT22;9047;53.486;10.218;2023-07-29T15:27:56;25.90;99.90
17845;DHT22;9047;53.486;10.218;2023-07-29T15:30:24;25.90;99.90
17845;DHT22;9047;53.486;10.218;2023-07-29T15:32:51;25.90;99.90
17845;DHT22;9047;53.486;10.218;2023-07-29T15:35:21;25.90;99.90
17845;DHT22;9047;53.486;10.218;2023-07-29T15:37:48;25.80;99.90
17845;DHT22;9047;53.486;10.218;2023-07-29T15:40:16;25.90;99.90
17845;DHT22;9047;53.486;10.218;2023-07-29T15:42:43;25.90;99.90
17845;DHT22;9047;53.486;10.218;2023-07-29T15:45:10;25.90;99.90
17845;DHT22;9047;53.486;10.218;2023-07-29T15:47:37;26.00;99.90
17845;DHT22;9047;53.486;10.218;2023-07-29T15:50:05;25.90;99.90
17845;DHT22;9047;53.486;10.218;2023-07-29T15:52:32;25.90;99.90
17845;DHT22;9047;53.486;10.218;2023-07-29T15:54:59;26.00;99.90